• Join FlightAware (Why Join?)
  • Login
  • US Flag 
12:29AM EST


 

Airport Tracker/Info


-or-


 

Live Flight TrackerFlight Track Log ✈ AXM5243 ✈ 15-Jul-2014 ✈ WBGB / BTU - WMKK / KUL

Flight Track Log - Related Links

Times and Time Zones

All times are in EDT time to prevent confusion due to time zone crossing. See the AXM5243 flight status page for this flight to view local times or setup timezone preferences in your user account.

Time Position Orientation Groundspeed Altitude Reporting Facility
EDT Latitude Longitude Course Direction KTS MPH feet Rate Location/Type
09:24AM 2.9375 104.2938 268° West 481 554 38,000  Level FlightAware ADS-B (WSAT / TGA)
09:25AM 2.9256 104.0861 265° West 480 552 38,000  Level FlightAware ADS-B (WSAT / TGA)
09:25AM 2.9204 104.0277 265° West 481 554 38,000  Level FlightAware ADS-B (WSAT / TGA)
09:26AM 2.9162 103.9800 266° West 481 554 38,000  Level FlightAware ADS-B (WSAT / TGA)
09:28AM 2.8887 103.6678 266° West 481 554 38,000 -60 Level FlightAware ADS-B (WSAT / TGA)
09:29AM 2.8787 103.5551 266° West 483 556 37,900 -480 Descending FlightAware ADS-B (WSAT / TGA)
09:29AM 2.8727 103.4866 266° West 483 556 37,400 -1,020 Descending FlightAware ADS-B (WSAT / TGA)
09:30AM 2.8670 103.4217 266° West 486 559 36,900 -960 Descending FlightAware ADS-B (WSAT / TGA)
09:30AM 2.8618 103.3636 266° West 487 560 36,500 -2,040 Descending FlightAware ADS-B (WSAT / TGA)
09:32AM 2.8380 103.0946 266° West 487 560 32,000 -2,280 Descending FlightAware ADS-B (WSAT / TGA)
09:33AM 2.8312 103.0185 265° West 471 542 30,800 -1,620 Descending FlightAware ADS-B (WSAT / TGA)
09:49AM 2.8681 101.4507 334° Northwest 255 293 4,400 -1,620 Descending FlightAware ADS-B (WMSA / SZB)
09:50AM 2.7456 101.7099 North  Level Estimated
09:50AM 2.8806 101.4458 336° Northwest 250 288 4,200  Level FlightAware ADS-B (WMSA / SZB)
09:50AM 2.8997 101.4354 334° Northwest 242 278 3,900 -1,500 Descending FlightAware ADS-B (WMSA / SZB)
09:50AM 2.9097 101.4330 354° North 240 276 3,800 -900 Descending FlightAware ADS-B (WMSA / SZB)
09:50AM 2.9208 101.4338 11° North 238 274 3,600 -900 Descending FlightAware ADS-B (WMSA / SZB)
09:50AM 2.9312 101.4379 29° Northeast 237 273 3,500 -900 Descending FlightAware ADS-B (WMSA / SZB)
09:51AM 2.9394 101.4451 49° Northeast 236 272 3,300 -900 Descending FlightAware ADS-B (WMSA / SZB)
09:51AM 2.9446 101.4551 70° East 232 267 3,200 -600 Descending FlightAware ADS-B (WMSA / SZB)
09:51AM 2.9459 101.4649 90° East 224 258 3,100 -240 Descending FlightAware ADS-B (WMSA / SZB)
09:51AM 2.9440 101.4773 102° East 217 250 3,100  Level FlightAware ADS-B (WMSA / SZB)
09:52AM 2.9374 101.5105 101° East 207 238 3,100  Level FlightAware ADS-B (WMSA / SZB)
09:53AM 2.9259 101.5481 129° Southeast 196 226 3,100  Level FlightAware ADS-B (WMSA / SZB)
09:53AM 2.9123 101.5602 143° Southeast 193 222 3,100  Level FlightAware ADS-B (WMSA / SZB)
09:53AM 2.8971 101.5709 146° Southeast 193 222 3,100 120 Level FlightAware ADS-B (WMSA / SZB)
09:54AM 2.8827 101.5806 146° Southeast 182 209 3,200 300 Climbing FlightAware ADS-B (WMSA / SZB)
09:56AM 2.7501 101.7056 137° Southeast  Level Estimated
09:57AM 2.7456 101.7099 137° Southeast  Level Estimated
09:58AM 2.7456 101.7099 North  Level Estimated
09:59AM 2.7456 101.7099 North  Level Estimated
10:00AM 2.7456 101.7099 North  Level Estimated
10:01AM 2.7456 101.7099 North  Level Estimated
10:02AM 2.7456 101.7099 North  Level Estimated
10:03AM 2.7456 101.7099 North  Level Estimated
10:04AM 2.7456 101.7099 North  Level Estimated
10:05AM 2.7456 101.7099 North  Level Estimated
10:06AM 2.7456 101.7099 North  Level Estimated
10:07AM 2.7456 101.7099 North  Level Estimated
10:08AM 2.7456 101.7099 North  Level Estimated
10:09AM 2.7456 101.7099 North  Level Estimated
10:10AM 2.7456 101.7099 North  Level Estimated
10:11AM 2.7456 101.7099 North  Level Estimated